Terminal Aerodrome Forecast
Issued by NWS Austin/San Antonio, TX

Home | Current Version | Previous Version | Text Only | Print | Product List | Glossary On
Versions: 1 2 3 4 5 6 7 8 9 10 11 12 13 14 15 16 17 18 19
127
FTUS44 KEWX 091122
TAFDRT
TAF
KDRT 091122Z 0912/1012 36006KT P6SM OVC060
     FM091700 14006KT P6SM BKN050
     FM100000 10005KT P6SM SCT050=

USA.gov is the U.S. government's official web portal to all federal, state and local government web resources and services.